Date,TemperatureHighF,TemperatureAvgF,TemperatureLowF,DewpointHighF,DewpointAvgF,DewpointLowF,HumidityHigh,HumidityAvg,HumidityLow,PressureMaxIn,PressureMinIn,WindSpeedMaxMPH,WindSpeedAvgMPH,GustSpeedMaxMPH,PrecipitationSumIn
2013-2-1,48.9,45.4,42.7,45.0,39.5,37.0,87,80,72,29.86,29.57,31,12,0,0.35
2013-2-2,45.3,42.8,37.3,38.0,34.1,30.0,77,72,65,30.31,29.75,25,10,0,0.02
2013-2-3,50.8,47.2,37.4,46.0,42.4,31.0,87,83,76,30.31,30.09,21,10,0,0.02
2013-2-4,50.8,50.1,48.5,46.0,45.4,43.0,86,84,80,30.08,30.04,24,13,0,0.00
2013-2-5,46.7,46.2,46.0,39.0,37.6,37.0,74,72,71,29.67,29.66,37,28,0,0.00
2013-2-6,46.1,43.1,39.9,38.0,34.8,32.0,81,73,66,30.22,29.68,36,18,0,0.08
2013-2-7,46.7,42.5,39.3,41.0,35.4,32.0,85,76,67,30.23,29.95,33,10,0,0.23
2013-2-8,47.0,44.4,39.4,41.0,37.5,34.0,82,77,71,30.25,30.08,24,10,0,0.00
2013-2-9,49.8,47.2,45.5,44.0,41.6,40.0,86,81,76,30.22,29.78,21,8,0,0.01
2013-2-10,49.1,44.7,38.3,46.0,39.7,33.0,88,82,73,29.77,29.27,30,8,0,0.34
2013-2-11,47.4,41.5,35.9,40.0,35.0,-99.9,85,80,73,29.76,29.28,11,4,0,0.01
2013-2-12,43.0,41.5,39.1,38.0,36.3,34.0,85,81,77,30.02,29.76,8,1,0,0.02
2013-2-13,51.6,47.3,43.1,48.0,43.5,38.0,92,86,81,30.03,29.86,19,7,0,0.36
2013-2-14,50.7,48.5,45.6,47.0,43.1,41.0,87,81,74,30.06,29.81,23,13,0,0.24
2013-2-15,50.7,46.1,43.0,43.0,39.4,36.0,84,77,68,30.16,30.07,13,4,0,0.00
2013-2-16,51.2,47.1,44.0,44.0,41.2,38.0,85,80,74,30.16,30.04,12,4,0,0.00
2013-2-17,47.6,46.5,45.0,42.0,39.1,37.0,81,75,71,30.05,29.87,24,12,0,0.00
2013-2-18,48.1,45.7,44.0,42.0,39.3,37.0,81,78,74,30.00,29.86,24,12,0,0.00
2013-2-19,48.0,46.0,44.6,41.0,39.2,38.0,82,77,71,30.00,29.95,16,6,0,0.00
2013-2-20,48.1,45.6,43.8,40.0,38.8,36.0,82,77,73,30.03,29.98,25,11,0,0.00
2013-2-21,43.8,40.7,38.5,37.0,32.1,29.0,76,72,67,30.04,29.98,26,15,0,0.00
2013-2-22,39.5,35.7,32.9,32.0,27.0,23.0,77,71,66,30.11,29.97,24,11,0,0.00
2013-2-23,37.9,34.5,32.5,28.0,25.5,22.0,76,70,63,30.22,30.11,13,4,0,0.00
2013-2-24,39.8,36.2,33.2,30.0,27.2,26.0,77,70,60,30.34,30.21,17,4,0,0.00
2013-2-25,41.2,38.9,40.8,34.0,27.0,-99.9,77,72,75,30.40,30.39,7,-49,0,0.00
2013-2-26,42.2,40.7,38.6,36.0,34.3,33.0,81,78,74,30.51,30.36,16,7,0,0.01
2013-2-27,45.0,40.2,34.6,37.0,34.1,30.0,82,78,72,30.52,30.42,13,5,0,0.01
2013-2-28,34.6,34.1,33.7,30.0,29.1,29.0,82,82,82,30.42,30.38,7,4,0,0.00